sensor_id;sensor_type;location;lat;lon;timestamp;pressure;altitude;pressure_sealevel;temperature;humidity
19736;BME280;32064;49.310;8.646;2023-03-02T00:01:20;100819.81;;;5.99;53.66
19736;BME280;32064;49.310;8.646;2023-03-02T00:03:48;100816.50;;;5.96;54.15
19736;BME280;32064;49.310;8.646;2023-03-02T00:06:13;100811.53;;;5.90;53.50
19736;BME280;32064;49.310;8.646;2023-03-02T00:08:40;100819.28;;;5.91;52.81
19736;BME280;32064;49.310;8.646;2023-03-02T00:11:05;100806.31;;;5.90;54.57
19736;BME280;32064;49.310;8.646;2023-03-02T00:13:33;100814.13;;;5.90;53.62
19736;BME280;32064;49.310;8.646;2023-03-02T00:15:59;100815.94;;;5.88;52.96
19736;BME280;32064;49.310;8.646;2023-03-02T00:18:25;100813.81;;;5.77;53.23
19736;BME280;32064;49.310;8.646;2023-03-02T00:20:50;100816.63;;;5.72;53.93
19736;BME280;32064;49.310;8.646;2023-03-02T00:23:16;100810.63;;;5.70;52.91
19736;BME280;32064;49.310;8.646;2023-03-02T00:25:41;100803.72;;;5.69;54.21
19736;BME280;32064;49.310;8.646;2023-03-02T00:28:07;100811.16;;;5.58;54.42
19736;BME280;32064;49.310;8.646;2023-03-02T00:30:32;100802.53;;;5.56;53.88
19736;BME280;32064;49.310;8.646;2023-03-02T00:32:57;100802.47;;;5.57;55.19
19736;BME280;32064;49.310;8.646;2023-03-02T00:35:23;100801.47;;;5.60;54.77
19736;BME280;32064;49.310;8.646;2023-03-02T00:37:51;100798.75;;;5.63;54.80
19736;BME280;32064;49.310;8.646;2023-03-02T00:40:17;100803.81;;;5.66;53.99
19736;BME280;32064;49.310;8.646;2023-03-02T00:42:42;100802.84;;;5.69;55.58
19736;BME280;32064;49.310;8.646;2023-03-02T00:45:08;100801.88;;;5.71;53.57
19736;BME280;32064;49.310;8.646;2023-03-02T00:47:35;100808.06;;;5.69;55.47
19736;BME280;32064;49.310;8.646;2023-03-02T00:50:02;100805.47;;;5.69;53.43
19736;BME280;32064;49.310;8.646;2023-03-02T00:52:29;100805.69;;;5.64;55.15
19736;BME280;32064;49.310;8.646;2023-03-02T00:54:54;100803.06;;;5.64;55.60
19736;BME280;32064;49.310;8.646;2023-03-02T00:57:20;100797.00;;;5.63;54.35
19736;BME280;32064;49.310;8.646;2023-03-02T00:59:45;100797.13;;;5.60;55.09
19736;BME280;32064;49.310;8.646;2023-03-02T01:02:11;100799.94;;;5.56;53.88
19736;BME280;32064;49.310;8.646;2023-03-02T01:04:41;100797.50;;;5.51;54.03
19736;BME280;32064;49.310;8.646;2023-03-02T01:07:12;100794.25;;;5.46;55.82
19736;BME280;32064;49.310;8.646;2023-03-02T01:09:40;100786.41;;;5.46;55.58
19736;BME280;32064;49.310;8.646;2023-03-02T01:12:06;100783.88;;;5.45;54.62
19736;BME280;32064;49.310;8.646;2023-03-02T01:14:39;100788.41;;;5.41;55.56
19736;BME280;32064;49.310;8.646;2023-03-02T01:17:06;100791.75;;;5.43;54.71
19736;BME280;32064;49.310;8.646;2023-03-02T01:19:32;100781.31;;;5.43;56.04
19736;BME280;32064;49.310;8.646;2023-03-02T01:21:58;100783.94;;;5.43;55.04
19736;BME280;32064;49.310;8.646;2023-03-02T01:24:24;100790.03;;;5.44;55.11
19736;BME280;32064;49.310;8.646;2023-03-02T01:26:49;100775.94;;;5.48;55.23
19736;BME280;32064;49.310;8.646;2023-03-02T01:29:14;100771.50;;;5.50;56.03
19736;BME280;32064;49.310;8.646;2023-03-02T01:31:40;100768.09;;;5.48;56.20
19736;BME280;32064;49.310;8.646;2023-03-02T01:34:05;100772.59;;;5.44;54.62
19736;BME280;32064;49.310;8.646;2023-03-02T01:36:31;100762.22;;;5.43;54.68
19736;BME280;32064;49.310;8.646;2023-03-02T01:38:57;100761.25;;;5.45;55.48
19736;BME280;32064;49.310;8.646;2023-03-02T01:41:22;100758.59;;;5.47;55.85
19736;BME280;32064;49.310;8.646;2023-03-02T01:43:47;100755.91;;;5.48;55.81
19736;BME280;32064;49.310;8.646;2023-03-02T01:46:15;100750.69;;;5.48;55.39
19736;BME280;32064;49.310;8.646;2023-03-02T01:49:04;100752.44;;;5.48;56.89
19736;BME280;32064;49.310;8.646;2023-03-02T01:51:34;100745.19;;;5.54;56.11
19736;BME280;32064;49.310;8.646;2023-03-02T01:54:10;100741.81;;;5.52;55.21
19736;BME280;32064;49.310;8.646;2023-03-02T01:56:42;100741.47;;;5.60;55.08
19736;BME280;32064;49.310;8.646;2023-03-02T01:59:11;100734.41;;;5.62;55.88
19736;BME280;32064;49.310;8.646;2023-03-02T02:01:40;100738.56;;;5.66;56.51
19736;BME280;32064;49.310;8.646;2023-03-02T02:04:07;100735.91;;;5.68;56.71
19736;BME280;32064;49.310;8.646;2023-03-02T02:06:38;100733.16;;;5.71;56.83
19736;BME280;32064;49.310;8.646;2023-03-02T02:09:07;100739.09;;;5.74;56.94
19736;BME280;32064;49.310;8.646;2023-03-02T02:11:33;100731.91;;;5.79;55.33
19736;BME280;32064;49.310;8.646;2023-03-02T02:14:00;100729.28;;;5.79;55.79
19736;BME280;32064;49.310;8.646;2023-03-02T02:16:27;100731.06;;;5.79;56.05
19736;BME280;32064;49.310;8.646;2023-03-02T02:18:53;100729.25;;;5.81;56.22
19736;BME280;32064;49.310;8.646;2023-03-02T02:21:20;100718.66;;;5.84;54.94
19736;BME280;32064;49.310;8.646;2023-03-02T02:26:33;100726.25;;;5.89;56.35
19736;BME280;32064;49.310;8.646;2023-03-02T02:29:21;100732.56;;;5.84;55.48
19736;BME280;32064;49.310;8.646;2023-03-02T02:32:22;100715.25;;;5.82;56.61
19736;BME280;32064;49.310;8.646;2023-03-02T02:35:10;100716.03;;;5.84;54.80
19736;BME280;32064;49.310;8.646;2023-03-02T02:37:40;100722.91;;;5.87;55.73
19736;BME280;32064;49.310;8.646;2023-03-02T02:40:14;100717.69;;;5.87;56.71
19736;BME280;32064;49.310;8.646;2023-03-02T02:42:44;100725.50;;;5.87;55.09
19736;BME280;32064;49.310;8.646;2023-03-02T02:45:30;100723.22;;;5.79;56.40
19736;BME280;32064;49.310;8.646;2023-03-02T02:47:56;100725.41;;;5.88;55.89
19736;BME280;32064;49.310;8.646;2023-03-02T02:50:24;100722.06;;;5.86;55.70
19736;BME280;32064;49.310;8.646;2023-03-02T02:52:59;100717.72;;;5.85;55.41
19736;BME280;32064;49.310;8.646;2023-03-02T02:55:26;100704.63;;;5.87;54.63
19736;BME280;32064;49.310;8.646;2023-03-02T02:57:56;100711.63;;;5.86;56.28
19736;BME280;32064;49.310;8.646;2023-03-02T03:00:22;100704.63;;;5.87;54.76
19736;BME280;32064;49.310;8.646;2023-03-02T03:03:00;100714.28;;;5.84;56.59
19736;BME280;32064;49.310;8.646;2023-03-02T03:05:27;100709.91;;;5.85;55.93
19736;BME280;32064;49.310;8.646;2023-03-02T03:08:06;100712.72;;;5.80;56.83
19736;BME280;32064;49.310;8.646;2023-03-02T03:10:35;100711.72;;;5.83;56.04
19736;BME280;32064;49.310;8.646;2023-03-02T03:13:06;100712.50;;;5.85;55.35
19736;BME280;32064;49.310;8.646;2023-03-02T03:15:32;100710.81;;;5.84;55.75
19736;BME280;32064;49.310;8.646;2023-03-02T03:17:58;100709.97;;;5.83;54.77
19736;BME280;32064;49.310;8.646;2023-03-02T03:20:25;100706.50;;;5.83;54.80
19736;BME280;32064;49.310;8.646;2023-03-02T03:22:52;100711.72;;;5.83;55.90
19736;BME280;32064;49.310;8.646;2023-03-02T03:25:23;100707.44;;;5.82;54.92
19736;BME280;32064;49.310;8.646;2023-03-02T03:27:49;100718.81;;;5.81;55.27
19736;BME280;32064;49.310;8.646;2023-03-02T03:30:15;100714.75;;;5.74;55.27
19736;BME280;32064;49.310;8.646;2023-03-02T03:32:41;100711.16;;;5.76;55.47
19736;BME280;32064;49.310;8.646;2023-03-02T03:35:07;100706.88;;;5.75;55.00
19736;BME280;32064;49.310;8.646;2023-03-02T03:37:37;100717.31;;;5.75;55.27
19736;BME280;32064;49.310;8.646;2023-03-02T03:40:04;100722.38;;;5.78;55.69
19736;BME280;32064;49.310;8.646;2023-03-02T03:42:30;100718.06;;;5.77;56.17
19736;BME280;32064;49.310;8.646;2023-03-02T03:44:56;100717.16;;;5.78;55.60
19736;BME280;32064;49.310;8.646;2023-03-02T03:47:21;100714.56;;;5.78;56.50
19736;BME280;32064;49.310;8.646;2023-03-02T03:49:47;100715.47;;;5.77;55.56
19736;BME280;32064;49.310;8.646;2023-03-02T03:52:12;100718.06;;;5.77;54.76
19736;BME280;32064;49.310;8.646;2023-03-02T03:54:38;100709.41;;;5.77;55.08
19736;BME280;32064;49.310;8.646;2023-03-02T03:57:03;100716.47;;;5.75;55.72
19736;BME280;32064;49.310;8.646;2023-03-02T03:59:28;100706.09;;;5.73;55.49
19736;BME280;32064;49.310;8.646;2023-03-02T04:01:57;100709.63;;;5.72;56.51
19736;BME280;32064;49.310;8.646;2023-03-02T04:04:28;100709.63;;;5.72;56.23
19736;BME280;32064;49.310;8.646;2023-03-02T04:06:54;100704.41;;;5.72;56.57
19736;BME280;32064;49.310;8.646;2023-03-02T04:09:20;100703.53;;;5.72;56.69
19736;BME280;32064;49.310;8.646;2023-03-02T04:11:48;100700.06;;;5.71;56.58
19736;BME280;32064;49.310;8.646;2023-03-02T04:14:14;100707.91;;;5.71;57.49
19736;BME280;32064;49.310;8.646;2023-03-02T04:16:41;100712.28;;;5.71;56.10
19736;BME280;32064;49.310;8.646;2023-03-02T04:19:07;100713.97;;;5.72;57.43
19736;BME280;32064;49.310;8.646;2023-03-02T04:21:42;100708.88;;;5.69;57.01
19736;BME280;32064;49.310;8.646;2023-03-02T04:24:09;100710.47;;;5.73;56.35
19736;BME280;32064;49.310;8.646;2023-03-02T04:26:36;100718.28;;;5.73;56.38
19736;BME280;32064;49.310;8.646;2023-03-02T04:29:03;100726.97;;;5.73;55.57
19736;BME280;32064;49.310;8.646;2023-03-02T04:31:28;100714.75;;;5.74;55.64
19736;BME280;32064;49.310;8.646;2023-03-02T04:33:55;100720.81;;;5.74;55.99
19736;BME280;32064;49.310;8.646;2023-03-02T04:36:21;100718.16;;;5.76;56.71
19736;BME280;32064;49.310;8.646;2023-03-02T04:38:47;100716.38;;;5.76;57.44
19736;BME280;32064;49.310;8.646;2023-03-02T04:41:12;100712.97;;;5.74;56.27
19736;BME280;32064;49.310;8.646;2023-03-02T04:43:38;100713.06;;;5.73;57.15
19736;BME280;32064;49.310;8.646;2023-03-02T04:46:03;100716.56;;;5.72;56.06
19736;BME280;32064;49.310;8.646;2023-03-02T04:48:29;100720.25;;;5.68;57.51
19736;BME280;32064;49.310;8.646;2023-03-02T04:50:54;100718.19;;;5.55;57.15
19736;BME280;32064;49.310;8.646;2023-03-02T04:53:20;100717.16;;;5.39;57.54
19736;BME280;32064;49.310;8.646;2023-03-02T04:55:45;100721.28;;;5.24;55.85
19736;BME280;32064;49.310;8.646;2023-03-02T04:58:11;100719.94;;;5.15;57.71
19736;BME280;32064;49.310;8.646;2023-03-02T05:00:37;100719.06;;;5.15;56.06
19736;BME280;32064;49.310;8.646;2023-03-02T05:03:02;100715.16;;;5.05;57.60
19736;BME280;32064;49.310;8.646;2023-03-02T05:05:29;100716.13;;;5.02;56.13
19736;BME280;32064;49.310;8.646;2023-03-02T05:07:55;100715.59;;;4.94;57.23
19736;BME280;32064;49.310;8.646;2023-03-02T05:10:24;100714.91;;;4.90;57.33
19736;BME280;32064;49.310;8.646;2023-03-02T05:12:50;100713.31;;;4.86;57.57
19736;BME280;32064;49.310;8.646;2023-03-02T05:15:37;100708.44;;;4.79;57.06
19736;BME280;32064;49.310;8.646;2023-03-02T05:18:08;100711.66;;;4.84;58.09
19736;BME280;32064;49.310;8.646;2023-03-02T05:20:34;100708.47;;;4.77;57.46
19736;BME280;32064;49.310;8.646;2023-03-02T05:23:02;100706.97;;;4.71;56.49
19736;BME280;32064;49.310;8.646;2023-03-02T05:25:30;100708.03;;;4.67;57.21
19736;BME280;32064;49.310;8.646;2023-03-02T05:27:56;100700.50;;;4.60;56.73
19736;BME280;32064;49.310;8.646;2023-03-02T05:30:22;100694.31;;;4.62;57.04
19736;BME280;32064;49.310;8.646;2023-03-02T05:32:49;100702.94;;;4.64;56.35
19736;BME280;32064;49.310;8.646;2023-03-02T05:35:15;100700.38;;;4.63;57.06
19736;BME280;32064;49.310;8.646;2023-03-02T05:37:40;100704.09;;;4.57;58.14
19736;BME280;32064;49.310;8.646;2023-03-02T05:40:14;100707.91;;;4.48;58.17
19736;BME280;32064;49.310;8.646;2023-03-02T05:42:40;100710.94;;;4.38;56.78
19736;BME280;32064;49.310;8.646;2023-03-02T05:45:10;100703.41;;;4.30;58.50
19736;BME280;32064;49.310;8.646;2023-03-02T05:47:37;100706.75;;;4.34;58.67
19736;BME280;32064;49.310;8.646;2023-03-02T05:50:03;100707.53;;;4.36;57.13
19736;BME280;32064;49.310;8.646;2023-03-02T05:52:28;100710.09;;;4.37;58.35
19736;BME280;32064;49.310;8.646;2023-03-02T05:54:54;100719.84;;;4.32;56.90
19736;BME280;32064;49.310;8.646;2023-03-02T05:57:19;100725.13;;;4.31;57.79
19736;BME280;32064;49.310;8.646;2023-03-02T05:59:45;100726.13;;;4.26;57.54
19736;BME280;32064;49.310;8.646;2023-03-02T06:02:11;100726.38;;;4.20;58.36
19736;BME280;32064;49.310;8.646;2023-03-02T06:04:37;100728.28;;;4.15;58.59
19736;BME280;32064;49.310;8.646;2023-03-02T06:07:11;100722.47;;;4.09;57.83
19736;BME280;32064;49.310;8.646;2023-03-02T06:09:37;100728.28;;;4.15;58.48
19736;BME280;32064;49.310;8.646;2023-03-02T06:12:03;100730.91;;;4.15;58.69
19736;BME280;32064;49.310;8.646;2023-03-02T06:14:29;100729.88;;;4.19;58.02
19736;BME280;32064;49.310;8.646;2023-03-02T06:16:54;100723.03;;;4.17;57.31
19736;BME280;32064;49.310;8.646;2023-03-02T06:19:20;100731.53;;;4.22;57.91
19736;BME280;32064;49.310;8.646;2023-03-02T06:21:45;100734.00;;;4.25;58.06
19736;BME280;32064;49.310;8.646;2023-03-02T06:24:11;100738.41;;;4.23;57.15
19736;BME280;32064;49.310;8.646;2023-03-02T06:26:36;100742.66;;;4.25;57.39
19736;BME280;32064;49.310;8.646;2023-03-02T06:29:01;100746.22;;;4.23;57.23
19736;BME280;32064;49.310;8.646;2023-03-02T06:31:27;100749.84;;;4.19;58.91
19736;BME280;32064;49.310;8.646;2023-03-02T06:33:52;100756.47;;;4.27;58.75
19736;BME280;32064;49.310;8.646;2023-03-02T06:36:18;100755.41;;;4.33;57.80
19736;BME280;32064;49.310;8.646;2023-03-02T06:38:43;100754.34;;;4.37;57.63
19736;BME280;32064;49.310;8.646;2023-03-02T06:41:09;100756.97;;;4.37;57.18
19736;BME280;32064;49.310;8.646;2023-03-02T06:43:34;100763.75;;;4.41;57.59
19736;BME280;32064;49.310;8.646;2023-03-02T06:45:59;100749.47;;;4.52;57.31
19736;BME280;32064;49.310;8.646;2023-03-02T06:48:25;100755.38;;;4.55;58.32
19736;BME280;32064;49.310;8.646;2023-03-02T06:50:51;100755.38;;;4.99;56.13
19736;BME280;32064;49.310;8.646;2023-03-02T06:53:16;100756.50;;;5.94;54.23
19736;BME280;32064;49.310;8.646;2023-03-02T06:55:46;100749.88;;;6.80;53.85
19736;BME280;32064;49.310;8.646;2023-03-02T06:58:11;100754.09;;;6.46;53.92
19736;BME280;32064;49.310;8.646;2023-03-02T07:00:38;100756.50;;;5.94;54.68
19736;BME280;32064;49.310;8.646;2023-03-02T07:03:03;100758.22;;;6.69;54.37
19736;BME280;32064;49.310;8.646;2023-03-02T07:05:28;100759.31;;;8.35;50.31
19736;BME280;32064;49.310;8.646;2023-03-02T07:07:57;100758.81;;;9.36;48.26
19736;BME280;32064;49.310;8.646;2023-03-02T07:10:23;100757.72;;;10.11;47.67
19736;BME280;32064;49.310;8.646;2023-03-02T07:12:48;100762.13;;;10.67;47.17
19736;BME280;32064;49.310;8.646;2023-03-02T07:15:14;100764.25;;;11.01;46.81
19736;BME280;32064;49.310;8.646;2023-03-02T07:17:41;100761.81;;;11.51;46.06
19736;BME280;32064;49.310;8.646;2023-03-02T07:20:07;100770.53;;;11.77;44.81
19736;BME280;32064;49.310;8.646;2023-03-02T07:22:35;100762.50;;;12.17;45.24
19736;BME280;32064;49.310;8.646;2023-03-02T07:25:00;100759.06;;;12.04;43.56
19736;BME280;32064;49.310;8.646;2023-03-02T07:27:26;100764.59;;;10.14;47.88
19736;BME280;32064;49.310;8.646;2023-03-02T07:29:51;100760.72;;;9.04;48.84
19736;BME280;32064;49.310;8.646;2023-03-02T07:32:17;100764.56;;;8.35;50.30
19736;BME280;32064;49.310;8.646;2023-03-02T07:34:42;100766.44;;;7.83;51.80
19736;BME280;32064;49.310;8.646;2023-03-02T07:37:07;100759.88;;;7.59;52.26
19736;BME280;32064;49.310;8.646;2023-03-02T07:39:33;100767.13;;;7.36;51.92
19736;BME280;32064;49.310;8.646;2023-03-02T07:41:59;100769.75;;;7.19;52.09
19736;BME280;32064;49.310;8.646;2023-03-02T07:44:25;100767.53;;;7.29;52.16
19736;BME280;32064;49.310;8.646;2023-03-02T07:46:51;100773.25;;;7.53;51.62
19736;BME280;32064;49.310;8.646;2023-03-02T07:49:17;100775.91;;;7.35;52.04
19736;BME280;32064;49.310;8.646;2023-03-02T07:51:42;100768.50;;;7.26;52.84
19736;BME280;32064;49.310;8.646;2023-03-02T07:54:08;100773.44;;;7.15;53.57
19736;BME280;32064;49.310;8.646;2023-03-02T07:56:33;100775.22;;;7.14;53.20
19736;BME280;32064;49.310;8.646;2023-03-02T07:58:59;100775.00;;;7.19;53.26
19736;BME280;32064;49.310;8.646;2023-03-02T08:01:24;100780.34;;;7.16;53.43
19736;BME280;32064;49.310;8.646;2023-03-02T08:03:49;100775.16;;;7.33;53.84
19736;BME280;32064;49.310;8.646;2023-03-02T08:06:15;100776.34;;;7.43;53.28
19736;BME280;32064;49.310;8.646;2023-03-02T08:08:41;100776.03;;;7.50;53.13
19736;BME280;32064;49.310;8.646;2023-03-02T08:11:09;100775.59;;;7.59;53.26
19736;BME280;32064;49.310;8.646;2023-03-02T08:13:34;100777.03;;;7.98;52.50
19736;BME280;32064;49.310;8.646;2023-03-02T08:16:01;100773.81;;;9.34;50.99
19736;BME280;32064;49.310;8.646;2023-03-02T08:18:28;100767.28;;;11.74;47.38
19736;BME280;32064;49.310;8.646;2023-03-02T08:20:54;100776.06;;;12.97;45.15
19736;BME280;32064;49.310;8.646;2023-03-02T08:23:20;100776.06;;;14.35;42.86
19736;BME280;32064;49.310;8.646;2023-03-02T08:25:45;100763.94;;;15.50;41.38
19736;BME280;32064;49.310;8.646;2023-03-02T08:28:11;100776.91;;;16.36;40.25
19736;BME280;32064;49.310;8.646;2023-03-02T08:30:36;100764.53;;;16.75;39.88
19736;BME280;32064;49.310;8.646;2023-03-02T08:33:02;100769.75;;;17.16;38.94
19736;BME280;32064;49.310;8.646;2023-03-02T08:35:27;100768.06;;;17.24;37.80
19736;BME280;32064;49.310;8.646;2023-03-02T08:37:53;100765.28;;;17.83;37.82
19736;BME280;32064;49.310;8.646;2023-03-02T08:40:18;100760.25;;;18.62;38.18
19736;BME280;32064;49.310;8.646;2023-03-02T08:42:44;100757.50;;;19.00;36.06
19736;BME280;32064;49.310;8.646;2023-03-02T08:45:09;100754.97;;;19.42;35.90
19736;BME280;32064;49.310;8.646;2023-03-02T08:47:35;100754.13;;;19.94;35.07
19736;BME280;32064;49.310;8.646;2023-03-02T08:50:00;100759.81;;;20.33;35.26
19736;BME280;32064;49.310;8.646;2023-03-02T08:52:25;100762.19;;;20.45;33.96
19736;BME280;32064;49.310;8.646;2023-03-02T08:54:51;100749.38;;;20.56;33.55
19736;BME280;32064;49.310;8.646;2023-03-02T08:57:16;100749.78;;;19.41;34.71
19736;BME280;32064;49.310;8.646;2023-03-02T08:59:42;100755.66;;;17.62;35.36
19736;BME280;32064;49.310;8.646;2023-03-02T09:02:10;100749.22;;;16.29;37.22
19736;BME280;32064;49.310;8.646;2023-03-02T09:04:36;100744.75;;;15.37;38.22
19736;BME280;32064;49.310;8.646;2023-03-02T09:07:01;100750.47;;;14.68;40.12
19736;BME280;32064;49.310;8.646;2023-03-02T09:09:27;100739.84;;;14.36;39.90
19736;BME280;32064;49.310;8.646;2023-03-02T09:11:52;100746.91;;;14.47;40.26
19736;BME280;32064;49.310;8.646;2023-03-02T09:14:18;100750.81;;;13.86;40.62
19736;BME280;32064;49.310;8.646;2023-03-02T09:16:43;100745.88;;;13.48;41.66
19736;BME280;32064;49.310;8.646;2023-03-02T09:19:11;100752.75;;;13.96;40.77
19736;BME280;32064;49.310;8.646;2023-03-02T09:21:36;100743.69;;;14.21;39.80
19736;BME280;32064;49.310;8.646;2023-03-02T09:24:02;100745.16;;;13.68;40.68
19736;BME280;32064;49.310;8.646;2023-03-02T09:26:27;100742.56;;;13.33;42.23
19736;BME280;32064;49.310;8.646;2023-03-02T09:28:53;100742.97;;;13.51;42.28
19736;BME280;32064;49.310;8.646;2023-03-02T09:31:19;100738.84;;;14.37;40.93
19736;BME280;32064;49.310;8.646;2023-03-02T09:33:44;100739.03;;;16.34;39.42
19736;BME280;32064;49.310;8.646;2023-03-02T09:36:12;100741.44;;;17.91;36.46
19736;BME280;32064;49.310;8.646;2023-03-02T09:38:39;100735.47;;;18.98;35.79
19736;BME280;32064;49.310;8.646;2023-03-02T09:46:22;100739.53;;;21.47;32.72
19736;BME280;32064;49.310;8.646;2023-03-02T09:51:39;100749.34;;;22.27;30.89
19736;BME280;32064;49.310;8.646;2023-03-02T09:54:15;100741.47;;;22.56;30.81
19736;BME280;32064;49.310;8.646;2023-03-02T09:56:45;100743.75;;;22.91;31.13
19736;BME280;32064;49.310;8.646;2023-03-02T10:04:41;100732.34;;;23.94;29.32
19736;BME280;32064;49.310;8.646;2023-03-02T10:07:18;100738.03;;;24.35;28.80
19736;BME280;32064;49.310;8.646;2023-03-02T10:09:46;100733.69;;;24.71;27.85
19736;BME280;32064;49.310;8.646;2023-03-02T10:15:03;100721.78;;;25.29;27.36
19736;BME280;32064;49.310;8.646;2023-03-02T10:20:58;100722.03;;;25.69;27.34
19736;BME280;32064;49.310;8.646;2023-03-02T10:23:44;100721.75;;;25.86;26.45
19736;BME280;32064;49.310;8.646;2023-03-02T10:26:42;100719.28;;;25.91;26.79
19736;BME280;32064;49.310;8.646;2023-03-02T10:29:31;100723.31;;;25.73;26.59
19736;BME280;32064;49.310;8.646;2023-03-02T10:32:27;100713.34;;;26.09;27.14
19736;BME280;32064;49.310;8.646;2023-03-02T10:34:53;100705.72;;;26.32;26.76
19736;BME280;32064;49.310;8.646;2023-03-02T10:37:25;100708.00;;;26.29;26.55
19736;BME280;32064;49.310;8.646;2023-03-02T10:39:53;100705.13;;;26.37;25.74
19736;BME280;32064;49.310;8.646;2023-03-02T10:42:27;100703.72;;;26.61;25.68
19736;BME280;32064;49.310;8.646;2023-03-02T10:44:59;100705.72;;;26.26;26.15
19736;BME280;32064;49.310;8.646;2023-03-02T10:47:27;100706.28;;;26.08;25.92
19736;BME280;32064;49.310;8.646;2023-03-02T10:49:55;100705.00;;;26.04;26.41
19736;BME280;32064;49.310;8.646;2023-03-02T10:52:23;100705.34;;;25.87;26.43
19736;BME280;32064;49.310;8.646;2023-03-02T10:55:00;100695.25;;;25.61;25.88
19736;BME280;32064;49.310;8.646;2023-03-02T10:59:57;100698.03;;;24.90;26.52
19736;BME280;32064;49.310;8.646;2023-03-02T11:02:25;100694.44;;;25.33;26.46
19736;BME280;32064;49.310;8.646;2023-03-02T11:05:19;100698.44;;;25.37;24.90
19736;BME280;32064;49.310;8.646;2023-03-02T11:08:24;100681.78;;;26.09;25.28
19736;BME280;32064;49.310;8.646;2023-03-02T11:13:38;100688.19;;;26.70;25.51
19736;BME280;32064;49.310;8.646;2023-03-02T11:16:22;100681.59;;;26.11;24.71
19736;BME280;32064;49.310;8.646;2023-03-02T11:18:54;100679.84;;;26.58;25.20
19736;BME280;32064;49.310;8.646;2023-03-02T11:21:28;100682.22;;;25.65;25.74
19736;BME280;32064;49.310;8.646;2023-03-02T11:24:08;100672.63;;;25.21;25.23
19736;BME280;32064;49.310;8.646;2023-03-02T11:26:55;100679.88;;;25.20;26.46
19736;BME280;32064;49.310;8.646;2023-03-02T11:32:05;100671.63;;;26.05;24.78
19736;BME280;32064;49.310;8.646;2023-03-02T11:34:52;100662.69;;;25.97;25.39
19736;BME280;32064;49.310;8.646;2023-03-02T11:37:25;100664.63;;;25.75;25.59
19736;BME280;32064;49.310;8.646;2023-03-02T11:42:35;100656.94;;;26.20;25.52
19736;BME280;32064;49.310;8.646;2023-03-02T11:45:15;100655.31;;;25.37;25.69
19736;BME280;32064;49.310;8.646;2023-03-02T11:47:45;100650.25;;;26.03;26.35
19736;BME280;32064;49.310;8.646;2023-03-02T11:50:14;100653.34;;;26.00;26.04
19736;BME280;32064;49.310;8.646;2023-03-02T11:52:47;100657.78;;;26.34;25.24
19736;BME280;32064;49.310;8.646;2023-03-02T11:55:19;100639.16;;;26.86;25.01
19736;BME280;32064;49.310;8.646;2023-03-02T11:57:52;100642.44;;;27.15;25.25
19736;BME280;32064;49.310;8.646;2023-03-02T12:00:37;100640.63;;;26.82;25.25
19736;BME280;32064;49.310;8.646;2023-03-02T12:08:45;100637.69;;;26.97;25.47
19736;BME280;32064;49.310;8.646;2023-03-02T12:13:58;100625.41;;;27.14;24.92
19736;BME280;32064;49.310;8.646;2023-03-02T12:16:36;100626.84;;;26.17;24.60
19736;BME280;32064;49.310;8.646;2023-03-02T12:19:24;100630.34;;;26.11;25.79
19736;BME280;32064;49.310;8.646;2023-03-02T12:21:58;100626.91;;;26.57;25.17
19736;BME280;32064;49.310;8.646;2023-03-02T12:24:35;100626.31;;;26.81;25.02
19736;BME280;32064;49.310;8.646;2023-03-02T12:29:53;100609.47;;;26.93;25.01
19736;BME280;32064;49.310;8.646;2023-03-02T12:32:29;100610.00;;;27.41;24.66
19736;BME280;32064;49.310;8.646;2023-03-02T12:35:02;100619.75;;;27.42;24.18
19736;BME280;32064;49.310;8.646;2023-03-02T12:48:28;100610.06;;;26.48;25.22
19736;BME280;32064;49.310;8.646;2023-03-02T12:50:59;100608.84;;;26.57;25.11
19736;BME280;32064;49.310;8.646;2023-03-02T12:53:25;100610.50;;;26.78;24.76
19736;BME280;32064;49.310;8.646;2023-03-02T12:55:50;100612.34;;;26.78;25.37
19736;BME280;32064;49.310;8.646;2023-03-02T12:58:18;100601.78;;;26.63;24.75
19736;BME280;32064;49.310;8.646;2023-03-02T13:00:52;100601.16;;;26.48;25.38
19736;BME280;32064;49.310;8.646;2023-03-02T13:03:19;100600.97;;;26.62;25.42
19736;BME280;32064;49.310;8.646;2023-03-02T13:05:45;100591.16;;;26.28;26.03
19736;BME280;32064;49.310;8.646;2023-03-02T13:08:20;100593.41;;;26.11;26.08
19736;BME280;32064;49.310;8.646;2023-03-02T13:10:53;100589.06;;;26.10;26.24
19736;BME280;32064;49.310;8.646;2023-03-02T13:13:26;100590.13;;;26.49;25.65
19736;BME280;32064;49.310;8.646;2023-03-02T13:16:00;100587.66;;;26.81;25.48
19736;BME280;32064;49.310;8.646;2023-03-02T13:18:28;100587.88;;;26.79;25.74
19736;BME280;32064;49.310;8.646;2023-03-02T13:20:57;100587.44;;;26.36;25.70
19736;BME280;32064;49.310;8.646;2023-03-02T13:23:23;100585.13;;;26.19;25.52
19736;BME280;32064;49.310;8.646;2023-03-02T13:25:56;100577.84;;;26.00;25.81
19736;BME280;32064;49.310;8.646;2023-03-02T13:28:33;100583.00;;;25.88;25.39
19736;BME280;32064;49.310;8.646;2023-03-02T13:31:20;100581.22;;;25.61;25.82
19736;BME280;32064;49.310;8.646;2023-03-02T13:33:47;100583.84;;;25.41;26.46
19736;BME280;32064;49.310;8.646;2023-03-02T13:36:19;100588.06;;;25.15;26.68
19736;BME280;32064;49.310;8.646;2023-03-02T13:38:55;100573.09;;;24.78;26.19
19736;BME280;32064;49.310;8.646;2023-03-02T13:41:22;100582.84;;;24.36;26.52
19736;BME280;32064;49.310;8.646;2023-03-02T13:43:48;100574.38;;;23.60;27.41
19736;BME280;32064;49.310;8.646;2023-03-02T13:49:05;100573.13;;;22.21;28.14
19736;BME280;32064;49.310;8.646;2023-03-02T13:51:43;100570.88;;;21.78;29.50
19736;BME280;32064;49.310;8.646;2023-03-02T13:54:23;100575.78;;;21.66;29.85
19736;BME280;32064;49.310;8.646;2023-03-02T13:56:50;100573.75;;;22.00;30.08
19736;BME280;32064;49.310;8.646;2023-03-02T13:59:17;100571.34;;;22.05;29.61
19736;BME280;32064;49.310;8.646;2023-03-02T14:01:43;100573.03;;;21.83;29.82